sensor_id;sensor_type;location;lat;lon;timestamp;P1;durP1;ratioP1;P2;durP2;ratioP2
50092;SDS011;35974;47.752;10.290;2022-08-27T00:00:12;4.45;;;2.78;;
50092;SDS011;35974;47.752;10.290;2022-08-27T00:02:41;4.63;;;3.08;;
50092;SDS011;35974;47.752;10.290;2022-08-27T00:05:12;3.72;;;3.00;;
50092;SDS011;35974;47.752;10.290;2022-08-27T00:07:41;3.65;;;3.00;;
50092;SDS011;35974;47.752;10.290;2022-08-27T00:10:11;4.25;;;3.30;;
50092;SDS011;35974;47.752;10.290;2022-08-27T00:12:40;4.15;;;2.97;;
50092;SDS011;35974;47.752;10.290;2022-08-27T00:15:07;3.55;;;2.70;;
50092;SDS011;35974;47.752;10.290;2022-08-27T00:17:36;5.63;;;3.38;;
50092;SDS011;35974;47.752;10.290;2022-08-27T00:20:04;5.25;;;3.60;;
50092;SDS011;35974;47.752;10.290;2022-08-27T00:22:32;4.28;;;3.28;;
50092;SDS011;35974;47.752;10.290;2022-08-27T00:24:59;4.93;;;3.17;;
50092;SDS011;35974;47.752;10.290;2022-08-27T00:27:25;5.40;;;3.33;;
50092;SDS011;35974;47.752;10.290;2022-08-27T00:29:52;5.50;;;3.50;;
50092;SDS011;35974;47.752;10.290;2022-08-27T00:32:18;5.03;;;2.97;;
50092;SDS011;35974;47.752;10.290;2022-08-27T00:34:45;4.47;;;2.88;;
50092;SDS011;35974;47.752;10.290;2022-08-27T00:37:11;3.72;;;2.85;;
50092;SDS011;35974;47.752;10.290;2022-08-27T00:39:38;3.00;;;2.70;;
50092;SDS011;35974;47.752;10.290;2022-08-27T00:42:04;2.95;;;2.40;;
50092;SDS011;35974;47.752;10.290;2022-08-27T00:44:31;3.20;;;2.80;;
50092;SDS011;35974;47.752;10.290;2022-08-27T00:47:00;4.70;;;2.88;;
50092;SDS011;35974;47.752;10.290;2022-08-27T00:55:20;4.30;;;3.28;;
50092;SDS011;35974;47.752;10.290;2022-08-27T00:57:52;4.82;;;2.80;;
50092;SDS011;35974;47.752;10.290;2022-08-27T01:00:30;5.43;;;4.50;;
50092;SDS011;35974;47.752;10.290;2022-08-27T01:02:56;4.38;;;3.45;;
50092;SDS011;35974;47.752;10.290;2022-08-27T01:05:22;4.15;;;3.33;;
50092;SDS011;35974;47.752;10.290;2022-08-27T01:07:52;6.55;;;4.20;;
50092;SDS011;35974;47.752;10.290;2022-08-27T01:10:24;5.03;;;3.53;;
50092;SDS011;35974;47.752;10.290;2022-08-27T01:12:52;5.45;;;4.15;;
50092;SDS011;35974;47.752;10.290;2022-08-27T01:15:20;6.50;;;4.68;;
50092;SDS011;35974;47.752;10.290;2022-08-27T01:17:48;8.02;;;5.25;;
50092;SDS011;35974;47.752;10.290;2022-08-27T01:20:20;4.82;;;4.03;;
50092;SDS011;35974;47.752;10.290;2022-08-27T01:25:45;5.50;;;4.45;;
50092;SDS011;35974;47.752;10.290;2022-08-27T01:28:13;4.88;;;4.00;;
50092;SDS011;35974;47.752;10.290;2022-08-27T01:30:39;5.28;;;4.00;;
50092;SDS011;35974;47.752;10.290;2022-08-27T01:33:07;5.15;;;4.05;;
50092;SDS011;35974;47.752;10.290;2022-08-27T01:35:37;4.80;;;4.05;;
50092;SDS011;35974;47.752;10.290;2022-08-27T01:38:05;5.32;;;3.92;;
50092;SDS011;35974;47.752;10.290;2022-08-27T01:40:44;7.50;;;4.28;;
50092;SDS011;35974;47.752;10.290;2022-08-27T01:43:11;5.70;;;3.90;;
50092;SDS011;35974;47.752;10.290;2022-08-27T01:45:38;5.00;;;3.75;;
50092;SDS011;35974;47.752;10.290;2022-08-27T01:48:09;4.57;;;3.60;;
50092;SDS011;35974;47.752;10.290;2022-08-27T01:50:38;7.45;;;4.30;;
50092;SDS011;35974;47.752;10.290;2022-08-27T01:53:07;6.75;;;4.00;;
50092;SDS011;35974;47.752;10.290;2022-08-27T01:55:36;5.40;;;3.95;;
50092;SDS011;35974;47.752;10.290;2022-08-27T01:58:05;5.03;;;3.92;;
50092;SDS011;35974;47.752;10.290;2022-08-27T02:00:34;5.75;;;4.28;;
50092;SDS011;35974;47.752;10.290;2022-08-27T02:03:02;4.40;;;3.55;;
50092;SDS011;35974;47.752;10.290;2022-08-27T02:05:30;4.32;;;3.88;;
50092;SDS011;35974;47.752;10.290;2022-08-27T02:08:09;4.50;;;3.90;;
50092;SDS011;35974;47.752;10.290;2022-08-27T02:10:37;4.60;;;3.58;;
50092;SDS011;35974;47.752;10.290;2022-08-27T02:13:05;4.00;;;3.60;;
50092;SDS011;35974;47.752;10.290;2022-08-27T02:15:33;3.60;;;3.13;;
50092;SDS011;35974;47.752;10.290;2022-08-27T02:18:01;4.30;;;3.17;;
50092;SDS011;35974;47.752;10.290;2022-08-27T02:20:29;4.05;;;3.20;;
50092;SDS011;35974;47.752;10.290;2022-08-27T02:22:56;3.20;;;2.70;;
50092;SDS011;35974;47.752;10.290;2022-08-27T02:25:24;4.32;;;2.70;;
50092;SDS011;35974;47.752;10.290;2022-08-27T02:27:52;3.40;;;2.65;;
50092;SDS011;35974;47.752;10.290;2022-08-27T02:30:20;4.50;;;2.65;;
50092;SDS011;35974;47.752;10.290;2022-08-27T02:32:49;3.22;;;2.75;;
50092;SDS011;35974;47.752;10.290;2022-08-27T02:35:19;2.70;;;2.50;;
50092;SDS011;35974;47.752;10.290;2022-08-27T02:37:47;4.50;;;3.03;;
50092;SDS011;35974;47.752;10.290;2022-08-27T02:40:15;4.78;;;3.03;;
50092;SDS011;35974;47.752;10.290;2022-08-27T02:42:44;3.90;;;2.92;;
50092;SDS011;35974;47.752;10.290;2022-08-27T02:45:12;4.80;;;2.85;;
50092;SDS011;35974;47.752;10.290;2022-08-27T02:47:40;3.47;;;3.17;;
50092;SDS011;35974;47.752;10.290;2022-08-27T02:50:07;4.13;;;3.03;;
50092;SDS011;35974;47.752;10.290;2022-08-27T02:52:34;3.70;;;2.90;;
50092;SDS011;35974;47.752;10.290;2022-08-27T02:55:02;3.85;;;3.33;;
50092;SDS011;35974;47.752;10.290;2022-08-27T02:57:30;4.32;;;3.30;;
50092;SDS011;35974;47.752;10.290;2022-08-27T03:00:03;3.28;;;2.80;;
50092;SDS011;35974;47.752;10.290;2022-08-27T03:02:32;5.13;;;3.35;;
50092;SDS011;35974;47.752;10.290;2022-08-27T03:04:58;4.00;;;3.28;;
50092;SDS011;35974;47.752;10.290;2022-08-27T03:07:25;6.47;;;3.80;;
50092;SDS011;35974;47.752;10.290;2022-08-27T03:09:51;6.10;;;4.10;;
50092;SDS011;35974;47.752;10.290;2022-08-27T03:12:18;4.28;;;3.47;;
50092;SDS011;35974;47.752;10.290;2022-08-27T03:14:47;4.13;;;3.67;;
50092;SDS011;35974;47.752;10.290;2022-08-27T03:17:14;5.18;;;3.58;;
50092;SDS011;35974;47.752;10.290;2022-08-27T03:19:59;5.78;;;3.10;;
50092;SDS011;35974;47.752;10.290;2022-08-27T03:22:27;5.30;;;3.65;;
50092;SDS011;35974;47.752;10.290;2022-08-27T03:24:53;4.97;;;4.07;;
50092;SDS011;35974;47.752;10.290;2022-08-27T03:27:21;7.28;;;4.75;;
50092;SDS011;35974;47.752;10.290;2022-08-27T03:29:48;6.97;;;5.32;;
50092;SDS011;35974;47.752;10.290;2022-08-27T03:32:14;5.43;;;4.20;;
50092;SDS011;35974;47.752;10.290;2022-08-27T03:34:41;4.53;;;3.80;;
50092;SDS011;35974;47.752;10.290;2022-08-27T03:37:07;5.50;;;4.65;;
50092;SDS011;35974;47.752;10.290;2022-08-27T03:39:34;6.80;;;5.13;;
50092;SDS011;35974;47.752;10.290;2022-08-27T03:42:00;6.15;;;5.00;;
50092;SDS011;35974;47.752;10.290;2022-08-27T03:44:27;4.97;;;4.30;;
50092;SDS011;35974;47.752;10.290;2022-08-27T03:46:53;6.40;;;4.25;;
50092;SDS011;35974;47.752;10.290;2022-08-27T03:49:20;8.00;;;4.60;;
50092;SDS011;35974;47.752;10.290;2022-08-27T03:51:49;5.40;;;4.65;;
50092;SDS011;35974;47.752;10.290;2022-08-27T03:54:17;6.60;;;4.57;;
50092;SDS011;35974;47.752;10.290;2022-08-27T03:56:43;5.93;;;4.50;;
50092;SDS011;35974;47.752;10.290;2022-08-27T03:59:10;8.48;;;5.88;;
50092;SDS011;35974;47.752;10.290;2022-08-27T04:01:37;6.82;;;4.90;;
50092;SDS011;35974;47.752;10.290;2022-08-27T04:04:03;6.70;;;4.50;;
50092;SDS011;35974;47.752;10.290;2022-08-27T04:06:30;5.75;;;4.63;;
50092;SDS011;35974;47.752;10.290;2022-08-27T04:08:58;9.00;;;7.53;;
50092;SDS011;35974;47.752;10.290;2022-08-27T04:11:25;6.07;;;5.47;;
50092;SDS011;35974;47.752;10.290;2022-08-27T04:13:54;6.32;;;5.03;;
50092;SDS011;35974;47.752;10.290;2022-08-27T04:16:21;6.70;;;5.78;;
50092;SDS011;35974;47.752;10.290;2022-08-27T04:18:48;8.75;;;5.78;;
50092;SDS011;35974;47.752;10.290;2022-08-27T04:21:14;5.55;;;4.75;;
50092;SDS011;35974;47.752;10.290;2022-08-27T04:23:41;5.65;;;4.78;;
50092;SDS011;35974;47.752;10.290;2022-08-27T04:26:08;6.05;;;4.88;;
50092;SDS011;35974;47.752;10.290;2022-08-27T04:28:36;6.28;;;5.45;;
50092;SDS011;35974;47.752;10.290;2022-08-27T04:31:04;6.50;;;5.40;;
50092;SDS011;35974;47.752;10.290;2022-08-27T04:33:38;6.57;;;5.22;;
50092;SDS011;35974;47.752;10.290;2022-08-27T04:36:05;8.60;;;6.10;;
50092;SDS011;35974;47.752;10.290;2022-08-27T04:38:33;9.02;;;6.13;;
50092;SDS011;35974;47.752;10.290;2022-08-27T04:41:03;9.95;;;6.38;;
50092;SDS011;35974;47.752;10.290;2022-08-27T04:43:49;7.28;;;5.60;;
50092;SDS011;35974;47.752;10.290;2022-08-27T04:46:24;6.35;;;5.63;;
50092;SDS011;35974;47.752;10.290;2022-08-27T04:48:54;6.53;;;5.72;;
50092;SDS011;35974;47.752;10.290;2022-08-27T04:51:23;9.27;;;6.28;;
50092;SDS011;35974;47.752;10.290;2022-08-27T04:53:49;7.85;;;6.20;;
50092;SDS011;35974;47.752;10.290;2022-08-27T04:56:18;6.72;;;5.53;;
50092;SDS011;35974;47.752;10.290;2022-08-27T04:58:47;6.90;;;5.63;;
50092;SDS011;35974;47.752;10.290;2022-08-27T05:01:16;7.45;;;5.72;;
50092;SDS011;35974;47.752;10.290;2022-08-27T05:03:44;7.15;;;5.78;;
50092;SDS011;35974;47.752;10.290;2022-08-27T05:06:11;7.35;;;5.72;;
50092;SDS011;35974;47.752;10.290;2022-08-27T05:08:38;6.80;;;5.45;;
50092;SDS011;35974;47.752;10.290;2022-08-27T05:11:05;6.85;;;5.38;;
50092;SDS011;35974;47.752;10.290;2022-08-27T05:13:33;6.07;;;5.35;;
50092;SDS011;35974;47.752;10.290;2022-08-27T05:16:01;6.80;;;5.57;;
50092;SDS011;35974;47.752;10.290;2022-08-27T05:18:31;7.20;;;6.07;;
50092;SDS011;35974;47.752;10.290;2022-08-27T05:21:07;7.55;;;5.90;;
50092;SDS011;35974;47.752;10.290;2022-08-27T05:23:37;5.90;;;5.28;;
50092;SDS011;35974;47.752;10.290;2022-08-27T05:26:04;7.15;;;5.15;;
50092;SDS011;35974;47.752;10.290;2022-08-27T05:28:32;7.15;;;5.72;;
50092;SDS011;35974;47.752;10.290;2022-08-27T05:31:03;6.05;;;5.45;;
50092;SDS011;35974;47.752;10.290;2022-08-27T05:33:31;5.45;;;4.82;;
50092;SDS011;35974;47.752;10.290;2022-08-27T05:35:58;6.25;;;4.90;;
50092;SDS011;35974;47.752;10.290;2022-08-27T05:38:26;6.32;;;5.40;;
50092;SDS011;35974;47.752;10.290;2022-08-27T05:41:03;6.55;;;5.38;;
50092;SDS011;35974;47.752;10.290;2022-08-27T05:43:35;5.32;;;4.82;;
50092;SDS011;35974;47.752;10.290;2022-08-27T05:46:03;5.38;;;4.88;;
50092;SDS011;35974;47.752;10.290;2022-08-27T05:48:32;5.95;;;4.93;;
50092;SDS011;35974;47.752;10.290;2022-08-27T05:51:05;6.68;;;5.28;;
50092;SDS011;35974;47.752;10.290;2022-08-27T05:53:34;7.28;;;5.70;;
50092;SDS011;35974;47.752;10.290;2022-08-27T05:56:01;6.68;;;5.45;;
50092;SDS011;35974;47.752;10.290;2022-08-27T05:58:28;6.40;;;5.40;;
50092;SDS011;35974;47.752;10.290;2022-08-27T06:01:14;5.93;;;5.25;;
50092;SDS011;35974;47.752;10.290;2022-08-27T06:03:46;7.07;;;5.35;;
50092;SDS011;35974;47.752;10.290;2022-08-27T06:06:13;6.70;;;5.60;;
50092;SDS011;35974;47.752;10.290;2022-08-27T06:08:39;8.25;;;6.40;;
50092;SDS011;35974;47.752;10.290;2022-08-27T06:11:06;6.95;;;5.90;;
50092;SDS011;35974;47.752;10.290;2022-08-27T06:13:33;7.30;;;6.28;;
50092;SDS011;35974;47.752;10.290;2022-08-27T06:16:05;7.15;;;6.45;;
50092;SDS011;35974;47.752;10.290;2022-08-27T06:18:35;8.27;;;6.35;;
50092;SDS011;35974;47.752;10.290;2022-08-27T06:21:04;6.32;;;5.53;;
50092;SDS011;35974;47.752;10.290;2022-08-27T06:23:31;7.10;;;5.63;;
50092;SDS011;35974;47.752;10.290;2022-08-27T06:25:57;6.72;;;5.47;;
50092;SDS011;35974;47.752;10.290;2022-08-27T06:28:25;9.20;;;5.93;;
50092;SDS011;35974;47.752;10.290;2022-08-27T06:31:01;6.85;;;6.00;;
50092;SDS011;35974;47.752;10.290;2022-08-27T06:33:29;6.95;;;5.90;;
50092;SDS011;35974;47.752;10.290;2022-08-27T06:35:59;6.95;;;5.53;;
50092;SDS011;35974;47.752;10.290;2022-08-27T06:38:27;5.90;;;5.30;;
50092;SDS011;35974;47.752;10.290;2022-08-27T06:40:54;5.72;;;5.10;;
50092;SDS011;35974;47.752;10.290;2022-08-27T06:43:21;5.82;;;5.00;;
50092;SDS011;35974;47.752;10.290;2022-08-27T06:45:50;5.75;;;5.07;;
50092;SDS011;35974;47.752;10.290;2022-08-27T06:48:17;5.60;;;5.10;;
50092;SDS011;35974;47.752;10.290;2022-08-27T06:50:45;6.75;;;5.68;;
50092;SDS011;35974;47.752;10.290;2022-08-27T06:53:11;6.80;;;5.70;;
50092;SDS011;35974;47.752;10.290;2022-08-27T06:55:45;6.53;;;5.13;;
50092;SDS011;35974;47.752;10.290;2022-08-27T06:58:14;9.50;;;6.00;;
50092;SDS011;35974;47.752;10.290;2022-08-27T07:00:41;8.73;;;5.90;;
50092;SDS011;35974;47.752;10.290;2022-08-27T07:03:14;5.85;;;5.35;;
50092;SDS011;35974;47.752;10.290;2022-08-27T07:05:40;6.10;;;5.45;;
50092;SDS011;35974;47.752;10.290;2022-08-27T07:08:07;7.63;;;5.65;;
50092;SDS011;35974;47.752;10.290;2022-08-27T07:10:35;6.47;;;5.75;;
50092;SDS011;35974;47.752;10.290;2022-08-27T07:13:02;6.75;;;5.63;;
50092;SDS011;35974;47.752;10.290;2022-08-27T07:15:30;5.80;;;5.20;;
50092;SDS011;35974;47.752;10.290;2022-08-27T07:17:59;7.13;;;5.60;;
50092;SDS011;35974;47.752;10.290;2022-08-27T07:20:25;7.07;;;5.70;;
50092;SDS011;35974;47.752;10.290;2022-08-27T07:22:52;7.68;;;5.90;;
50092;SDS011;35974;47.752;10.290;2022-08-27T07:25:19;6.57;;;5.57;;
50092;SDS011;35974;47.752;10.290;2022-08-27T07:27:46;6.32;;;5.63;;
50092;SDS011;35974;47.752;10.290;2022-08-27T07:30:15;6.20;;;5.28;;
50092;SDS011;35974;47.752;10.290;2022-08-27T07:32:45;6.30;;;5.70;;
50092;SDS011;35974;47.752;10.290;2022-08-27T07:35:12;5.88;;;5.28;;
50092;SDS011;35974;47.752;10.290;2022-08-27T07:37:39;5.88;;;5.07;;
50092;SDS011;35974;47.752;10.290;2022-08-27T07:40:08;5.82;;;5.22;;
50092;SDS011;35974;47.752;10.290;2022-08-27T07:42:39;6.00;;;4.60;;
50092;SDS011;35974;47.752;10.290;2022-08-27T07:45:25;5.28;;;4.55;;
50092;SDS011;35974;47.752;10.290;2022-08-27T07:47:52;5.60;;;4.82;;
50092;SDS011;35974;47.752;10.290;2022-08-27T07:50:19;5.82;;;4.07;;
50092;SDS011;35974;47.752;10.290;2022-08-27T07:52:47;5.55;;;4.90;;
50092;SDS011;35974;47.752;10.290;2022-08-27T07:55:13;7.80;;;4.70;;
50092;SDS011;35974;47.752;10.290;2022-08-27T07:57:40;5.03;;;3.70;;
50092;SDS011;35974;47.752;10.290;2022-08-27T08:00:07;6.30;;;4.60;;
50092;SDS011;35974;47.752;10.290;2022-08-27T08:02:39;6.38;;;4.80;;
50092;SDS011;35974;47.752;10.290;2022-08-27T08:05:07;6.35;;;5.13;;
50092;SDS011;35974;47.752;10.290;2022-08-27T08:07:34;5.50;;;4.90;;
50092;SDS011;35974;47.752;10.290;2022-08-27T08:10:04;6.18;;;4.40;;
50092;SDS011;35974;47.752;10.290;2022-08-27T08:12:33;4.85;;;4.32;;
50092;SDS011;35974;47.752;10.290;2022-08-27T08:15:05;5.60;;;5.00;;
50092;SDS011;35974;47.752;10.290;2022-08-27T08:17:34;6.57;;;4.90;;
50092;SDS011;35974;47.752;10.290;2022-08-27T08:20:03;5.22;;;4.28;;
50092;SDS011;35974;47.752;10.290;2022-08-27T08:22:51;5.63;;;4.70;;
50092;SDS011;35974;47.752;10.290;2022-08-27T08:25:18;6.07;;;5.15;;
50092;SDS011;35974;47.752;10.290;2022-08-27T08:27:44;5.55;;;4.90;;
50092;SDS011;35974;47.752;10.290;2022-08-27T08:30:11;6.10;;;4.85;;
50092;SDS011;35974;47.752;10.290;2022-08-27T08:32:37;7.00;;;5.32;;
50092;SDS011;35974;47.752;10.290;2022-08-27T08:35:04;6.60;;;5.38;;
50092;SDS011;35974;47.752;10.290;2022-08-27T08:37:31;6.75;;;5.90;;
50092;SDS011;35974;47.752;10.290;2022-08-27T08:39:57;6.50;;;5.60;;
50092;SDS011;35974;47.752;10.290;2022-08-27T08:45:01;7.05;;;5.88;;
50092;SDS011;35974;47.752;10.290;2022-08-27T08:47:37;9.48;;;6.35;;
50092;SDS011;35974;47.752;10.290;2022-08-27T08:50:11;6.70;;;5.72;;
50092;SDS011;35974;47.752;10.290;2022-08-27T08:52:59;7.25;;;6.05;;
50092;SDS011;35974;47.752;10.290;2022-08-27T08:55:43;8.10;;;6.47;;
50092;SDS011;35974;47.752;10.290;2022-08-27T08:58:15;7.00;;;6.05;;
50092;SDS011;35974;47.752;10.290;2022-08-27T09:00:54;11.50;;;7.20;;
50092;SDS011;35974;47.752;10.290;2022-08-27T09:03:23;10.18;;;7.53;;
50092;SDS011;35974;47.752;10.290;2022-08-27T09:05:58;9.65;;;7.20;;
50092;SDS011;35974;47.752;10.290;2022-08-27T09:08:39;8.73;;;7.25;;
50092;SDS011;35974;47.752;10.290;2022-08-27T09:11:51;12.07;;;7.32;;
50092;SDS011;35974;47.752;10.290;2022-08-27T09:14:06;9.37;;;7.47;;
50092;SDS011;35974;47.752;10.290;2022-08-27T09:16:48;8.57;;;6.95;;
50092;SDS011;35974;47.752;10.290;2022-08-27T09:19:14;10.23;;;8.00;;
50092;SDS011;35974;47.752;10.290;2022-08-27T09:21:50;9.68;;;7.35;;
50092;SDS011;35974;47.752;10.290;2022-08-27T09:27:08;10.00;;;7.30;;
50092;SDS011;35974;47.752;10.290;2022-08-27T09:29:44;9.80;;;7.00;;
50092;SDS011;35974;47.752;10.290;2022-08-27T09:32:19;9.38;;;7.30;;
50092;SDS011;35974;47.752;10.290;2022-08-27T09:34:48;10.68;;;7.53;;
50092;SDS011;35974;47.752;10.290;2022-08-27T09:37:21;11.18;;;7.75;;
50092;SDS011;35974;47.752;10.290;2022-08-27T09:40:07;10.65;;;7.50;;
50092;SDS011;35974;47.752;10.290;2022-08-27T09:42:49;11.07;;;7.03;;
50092;SDS011;35974;47.752;10.290;2022-08-27T09:45:20;8.43;;;6.28;;
50092;SDS011;35974;47.752;10.290;2022-08-27T09:48:04;8.57;;;6.50;;
50092;SDS011;35974;47.752;10.290;2022-08-27T09:50:40;9.55;;;7.60;;
50092;SDS011;35974;47.752;10.290;2022-08-27T09:55:59;11.40;;;8.32;;
50092;SDS011;35974;47.752;10.290;2022-08-27T09:58:29;10.73;;;8.40;;
50092;SDS011;35974;47.752;10.290;2022-08-27T10:01:16;12.18;;;8.45;;
50092;SDS011;35974;47.752;10.290;2022-08-27T10:03:43;12.15;;;8.10;;
50092;SDS011;35974;47.752;10.290;2022-08-27T10:06:09;9.38;;;8.25;;
50092;SDS011;35974;47.752;10.290;2022-08-27T10:08:46;10.68;;;8.15;;
50092;SDS011;35974;47.752;10.290;2022-08-27T10:24:41;11.63;;;8.85;;
50092;SDS011;35974;47.752;10.290;2022-08-27T10:32:44;10.85;;;7.50;;
50092;SDS011;35974;47.752;10.290;2022-08-27T10:38:06;11.45;;;7.97;;
50092;SDS011;35974;47.752;10.290;2022-08-27T10:40:46;9.15;;;6.97;;
50092;SDS011;35974;47.752;10.290;2022-08-27T10:46:04;11.35;;;7.82;;
50092;SDS011;35974;47.752;10.290;2022-08-27T10:48:57;10.23;;;7.25;;
50092;SDS011;35974;47.752;10.290;2022-08-27T10:51:41;10.65;;;7.85;;
50092;SDS011;35974;47.752;10.290;2022-08-27T10:54:21;10.85;;;7.18;;
50092;SDS011;35974;47.752;10.290;2022-08-27T10:56:54;12.27;;;8.27;;
50092;SDS011;35974;47.752;10.290;2022-08-27T10:59:57;8.45;;;6.88;;
50092;SDS011;35974;47.752;10.290;2022-08-27T11:02:38;9.48;;;6.68;;
50092;SDS011;35974;47.752;10.290;2022-08-27T11:05:20;11.40;;;6.28;;
50092;SDS011;35974;47.752;10.290;2022-08-27T11:08:06;8.63;;;6.15;;
50092;SDS011;35974;47.752;10.290;2022-08-27T11:10:41;8.15;;;5.50;;
50092;SDS011;35974;47.752;10.290;2022-08-27T11:13:13;7.70;;;5.55;;
50092;SDS011;35974;47.752;10.290;2022-08-27T11:15:47;7.70;;;6.20;;
50092;SDS011;35974;47.752;10.290;2022-08-27T11:21:01;7.18;;;4.82;;
50092;SDS011;35974;47.752;10.290;2022-08-27T11:26:02;7.20;;;4.78;;
50092;SDS011;35974;47.752;10.290;2022-08-27T11:28:32;7.47;;;5.32;;
50092;SDS011;35974;47.752;10.290;2022-08-27T11:33:42;7.95;;;5.43;;
50092;SDS011;35974;47.752;10.290;2022-08-27T11:39:02;6.07;;;4.60;;
50092;SDS011;35974;47.752;10.290;2022-08-27T11:41:50;6.10;;;4.78;;
50092;SDS011;35974;47.752;10.290;2022-08-27T11:44:19;7.43;;;5.35;;
50092;SDS011;35974;47.752;10.290;2022-08-27T11:46:56;7.43;;;4.45;;
50092;SDS011;35974;47.752;10.290;2022-08-27T11:49:41;6.72;;;5.03;;
50092;SDS011;35974;47.752;10.290;2022-08-27T11:52:08;6.70;;;4.95;;
50092;SDS011;35974;47.752;10.290;2022-08-27T11:54:43;8.13;;;5.72;;
50092;SDS011;35974;47.752;10.290;2022-08-27T11:57:13;7.97;;;5.82;;
50092;SDS011;35974;47.752;10.290;2022-08-27T11:59:41;8.75;;;5.47;;
50092;SDS011;35974;47.752;10.290;2022-08-27T12:02:10;8.77;;;5.50;;
50092;SDS011;35974;47.752;10.290;2022-08-27T12:04:46;7.78;;;5.28;;
50092;SDS011;35974;47.752;10.290;2022-08-27T12:12:21;8.55;;;5.78;;
50092;SDS011;35974;47.752;10.290;2022-08-27T12:15:02;8.25;;;5.72;;
50092;SDS011;35974;47.752;10.290;2022-08-27T12:17:38;7.55;;;5.80;;
50092;SDS011;35974;47.752;10.290;2022-08-27T12:23:19;10.18;;;7.18;;
50092;SDS011;35974;47.752;10.290;2022-08-27T12:26:16;10.43;;;7.07;;
50092;SDS011;35974;47.752;10.290;2022-08-27T12:28:43;9.73;;;7.13;;
50092;SDS011;35974;47.752;10.290;2022-08-27T12:31:09;8.27;;;5.80;;
50092;SDS011;35974;47.752;10.290;2022-08-27T12:33:40;7.32;;;6.10;;
50092;SDS011;35974;47.752;10.290;2022-08-27T12:36:21;8.48;;;6.03;;
50092;SDS011;35974;47.752;10.290;2022-08-27T12:38:54;7.63;;;4.47;;
50092;SDS011;35974;47.752;10.290;2022-08-27T12:41:31;5.80;;;4.18;;
50092;SDS011;35974;47.752;10.290;2022-08-27T12:44:11;4.45;;;3.90;;
50092;SDS011;35974;47.752;10.290;2022-08-27T12:46:52;7.13;;;4.28;;
50092;SDS011;35974;47.752;10.290;2022-08-27T12:49:23;6.38;;;4.40;;
50092;SDS011;35974;47.752;10.290;2022-08-27T12:52:11;5.97;;;4.80;;
50092;SDS011;35974;47.752;10.290;2022-08-27T12:55:15;12.85;;;5.93;;
50092;SDS011;35974;47.752;10.290;2022-08-27T12:58:10;7.93;;;4.75;;
50092;SDS011;35974;47.752;10.290;2022-08-27T13:01:27;8.38;;;5.30;;
50092;SDS011;35974;47.752;10.290;2022-08-27T13:03:50;8.00;;;5.97;;
50092;SDS011;35974;47.752;10.290;2022-08-27T13:06:21;9.68;;;5.45;;
50092;SDS011;35974;47.752;10.290;2022-08-27T13:08:53;7.93;;;6.32;;
50092;SDS011;35974;47.752;10.290;2022-08-27T13:11:22;7.18;;;6.00;;
50092;SDS011;35974;47.752;10.290;2022-08-27T13:13:51;8.05;;;6.60;;
50092;SDS011;35974;47.752;10.290;2022-08-27T13:16:28;11.50;;;6.68;;
50092;SDS011;35974;47.752;10.290;2022-08-27T13:18:56;8.70;;;6.55;;
50092;SDS011;35974;47.752;10.290;2022-08-27T13:21:27;11.48;;;8.18;;
50092;SDS011;35974;47.752;10.290;2022-08-27T13:23:55;11.52;;;8.20;;
50092;SDS011;35974;47.752;10.290;2022-08-27T13:26:25;12.25;;;7.57;;
50092;SDS011;35974;47.752;10.290;2022-08-27T13:28:54;10.02;;;7.40;;
50092;SDS011;35974;47.752;10.290;2022-08-27T13:31:28;10.18;;;7.68;;
50092;SDS011;35974;47.752;10.290;2022-08-27T13:33:56;10.05;;;7.65;;
50092;SDS011;35974;47.752;10.290;2022-08-27T13:36:24;10.23;;;8.20;;
50092;SDS011;35974;47.752;10.290;2022-08-27T13:39:02;10.75;;;8.25;;
50092;SDS011;35974;47.752;10.290;2022-08-27T13:41:32;11.20;;;8.73;;
50092;SDS011;35974;47.752;10.290;2022-08-27T13:46:43;14.40;;;10.35;;
50092;SDS011;35974;47.752;10.290;2022-08-27T13:49:16;11.88;;;9.25;;
50092;SDS011;35974;47.752;10.290;2022-08-27T13:51:47;13.75;;;11.45;;
50092;SDS011;35974;47.752;10.290;2022-08-27T13:54:16;14.57;;;11.32;;
50092;SDS011;35974;47.752;10.290;2022-08-27T14:01:58;21.88;;;14.98;;
50092;SDS011;35974;47.752;10.290;2022-08-27T14:04:43;21.63;;;16.23;;
50092;SDS011;35974;47.752;10.290;2022-08-27T14:07:13;23.13;;;16.17;;
50092;SDS011;35974;47.752;10.290;2022-08-27T14:09:49;21.85;;;16.30;;
50092;SDS011;35974;47.752;10.290;2022-08-27T14:12:30;22.60;;;16.08;;
50092;SDS011;35974;47.752;10.290;2022-08-27T14:15:43;26.10;;;16.60;;
50092;SDS011;35974;47.752;10.290;2022-08-27T14:18:02;21.30;;;15.27;;
50092;SDS011;35974;47.752;10.290;2022-08-27T14:20:30;25.58;;;17.35;;
50092;SDS011;35974;47.752;10.290;2022-08-27T14:22:57;26.63;;;18.25;;
50092;SDS011;35974;47.752;10.290;2022-08-27T14:25:25;26.00;;;17.55;;
50092;SDS011;35974;47.752;10.290;2022-08-27T14:27:52;26.15;;;17.17;;
50092;SDS011;35974;47.752;10.290;2022-08-27T14:30:21;25.55;;;17.88;;
50092;SDS011;35974;47.752;10.290;2022-08-27T14:32:55;27.67;;;18.40;;
50092;SDS011;35974;47.752;10.290;2022-08-27T14:35:23;27.77;;;17.45;;
50092;SDS011;35974;47.752;10.290;2022-08-27T14:37:50;29.48;;;19.13;;
50092;SDS011;35974;47.752;10.290;2022-08-27T14:40:17;25.48;;;18.08;;
50092;SDS011;35974;47.752;10.290;2022-08-27T14:42:44;26.60;;;17.02;;
50092;SDS011;35974;47.752;10.290;2022-08-27T14:45:11;23.60;;;16.48;;
50092;SDS011;35974;47.752;10.290;2022-08-27T14:47:38;26.02;;;15.75;;
50092;SDS011;35974;47.752;10.290;2022-08-27T14:50:07;23.35;;;14.73;;
50092;SDS011;35974;47.752;10.290;2022-08-27T14:52:36;22.80;;;15.18;;
50092;SDS011;35974;47.752;10.290;2022-08-27T14:55:05;20.80;;;13.85;;
50092;SDS011;35974;47.752;10.290;2022-08-27T14:57:36;17.80;;;13.23;;
50092;SDS011;35974;47.752;10.290;2022-08-27T15:00:04;18.88;;;13.25;;
50092;SDS011;35974;47.752;10.290;2022-08-27T15:02:32;18.33;;;13.13;;
50092;SDS011;35974;47.752;10.290;2022-08-27T15:05:00;19.77;;;13.50;;
50092;SDS011;35974;47.752;10.290;2022-08-27T15:10:02;20.70;;;13.38;;
50092;SDS011;35974;47.752;10.290;2022-08-27T15:12:30;22.73;;;14.50;;
50092;SDS011;35974;47.752;10.290;2022-08-27T15:14:57;22.05;;;15.07;;
50092;SDS011;35974;47.752;10.290;2022-08-27T15:17:23;21.95;;;15.63;;
50092;SDS011;35974;47.752;10.290;2022-08-27T15:20:00;22.17;;;14.63;;
50092;SDS011;35974;47.752;10.290;2022-08-27T15:22:33;21.40;;;15.18;;
50092;SDS011;35974;47.752;10.290;2022-08-27T15:25:03;22.27;;;15.50;;
50092;SDS011;35974;47.752;10.290;2022-08-27T15:27:31;20.77;;;14.77;;
50092;SDS011;35974;47.752;10.290;2022-08-27T15:30:04;21.70;;;14.88;;
50092;SDS011;35974;47.752;10.290;2022-08-27T15:32:35;21.35;;;15.15;;
50092;SDS011;35974;47.752;10.290;2022-08-27T15:35:06;23.98;;;14.82;;
50092;SDS011;35974;47.752;10.290;2022-08-27T15:37:37;22.10;;;15.02;;
50092;SDS011;35974;47.752;10.290;2022-08-27T15:40:04;23.92;;;15.90;;
50092;SDS011;35974;47.752;10.290;2022-08-27T15:42:31;23.02;;;15.68;;
50092;SDS011;35974;47.752;10.290;2022-08-27T15:44:58;24.75;;;15.45;;
50092;SDS011;35974;47.752;10.290;2022-08-27T15:47:24;21.55;;;15.27;;
50092;SDS011;35974;47.752;10.290;2022-08-27T15:49:51;21.10;;;14.68;;
50092;SDS011;35974;47.752;10.290;2022-08-27T15:52:18;24.58;;;15.13;;
50092;SDS011;35974;47.752;10.290;2022-08-27T15:54:47;22.75;;;14.60;;
50092;SDS011;35974;47.752;10.290;2022-08-27T15:57:14;25.75;;;14.93;;
50092;SDS011;35974;47.752;10.290;2022-08-27T15:59:42;21.25;;;14.48;;